sensor_id;sensor_type;location;lat;lon;timestamp;temperature;humidity
8988;DHT22;4529;51.360;12.474;2023-04-24T00:00:46;14.90;99.90
8988;DHT22;4529;51.360;12.474;2023-04-24T00:05:50;14.80;99.90
8988;DHT22;4529;51.360;12.474;2023-04-24T00:10:53;14.90;99.90
8988;DHT22;4529;51.360;12.474;2023-04-24T00:15:57;14.70;99.90
8988;DHT22;4529;51.360;12.474;2023-04-24T00:21:00;14.70;99.90
8988;DHT22;4529;51.360;12.474;2023-04-24T00:26:04;14.50;99.90
8988;DHT22;4529;51.360;12.474;2023-04-24T00:31:07;14.50;99.90
8988;DHT22;4529;51.360;12.474;2023-04-24T00:36:11;14.50;99.90
8988;DHT22;4529;51.360;12.474;2023-04-24T00:41:14;14.50;99.90
8988;DHT22;4529;51.360;12.474;2023-04-24T00:46:18;14.60;99.90
8988;DHT22;4529;51.360;12.474;2023-04-24T00:51:21;14.50;99.90
8988;DHT22;4529;51.360;12.474;2023-04-24T00:56:25;14.50;99.90
8988;DHT22;4529;51.360;12.474;2023-04-24T01:01:29;14.40;99.90
8988;DHT22;4529;51.360;12.474;2023-04-24T01:06:33;14.40;99.90
8988;DHT22;4529;51.360;12.474;2023-04-24T01:11:37;14.30;99.90
8988;DHT22;4529;51.360;12.474;2023-04-24T01:16:42;14.30;99.90
8988;DHT22;4529;51.360;12.474;2023-04-24T01:21:46;14.30;99.90
8988;DHT22;4529;51.360;12.474;2023-04-24T01:26:51;14.20;99.90
8988;DHT22;4529;51.360;12.474;2023-04-24T01:31:55;14.20;99.90
8988;DHT22;4529;51.360;12.474;2023-04-24T01:36:59;14.10;99.90
8988;DHT22;4529;51.360;12.474;2023-04-24T01:42:04;14.10;99.90
8988;DHT22;4529;51.360;12.474;2023-04-24T01:47:08;14.10;99.90
8988;DHT22;4529;51.360;12.474;2023-04-24T01:52:11;14.10;99.90
8988;DHT22;4529;51.360;12.474;2023-04-24T01:57:15;14.10;99.90
8988;DHT22;4529;51.360;12.474;2023-04-24T02:02:18;14.10;99.90
8988;DHT22;4529;51.360;12.474;2023-04-24T02:07:22;14.00;99.90
8988;DHT22;4529;51.360;12.474;2023-04-24T02:12:25;14.00;99.90
8988;DHT22;4529;51.360;12.474;2023-04-24T02:17:28;14.00;99.90
8988;DHT22;4529;51.360;12.474;2023-04-24T02:22:33;13.90;99.90
8988;DHT22;4529;51.360;12.474;2023-04-24T02:27:37;13.80;99.90
8988;DHT22;4529;51.360;12.474;2023-04-24T02:32:40;13.80;99.90
8988;DHT22;4529;51.360;12.474;2023-04-24T02:37:44;13.80;99.90
8988;DHT22;4529;51.360;12.474;2023-04-24T02:42:48;13.80;99.90
8988;DHT22;4529;51.360;12.474;2023-04-24T02:47:53;13.80;99.90
8988;DHT22;4529;51.360;12.474;2023-04-24T02:52:57;13.70;99.90
8988;DHT22;4529;51.360;12.474;2023-04-24T02:58:01;13.70;99.90
8988;DHT22;4529;51.360;12.474;2023-04-24T03:03:05;13.70;99.90
8988;DHT22;4529;51.360;12.474;2023-04-24T03:08:09;13.60;99.90
8988;DHT22;4529;51.360;12.474;2023-04-24T03:13:13;13.60;99.90
8988;DHT22;4529;51.360;12.474;2023-04-24T03:18:17;13.50;99.90
8988;DHT22;4529;51.360;12.474;2023-04-24T03:23:21;13.50;99.90
8988;DHT22;4529;51.360;12.474;2023-04-24T03:28:26;13.50;99.90
8988;DHT22;4529;51.360;12.474;2023-04-24T03:33:30;13.40;99.90
8988;DHT22;4529;51.360;12.474;2023-04-24T03:38:34;13.40;99.90
8988;DHT22;4529;51.360;12.474;2023-04-24T03:43:38;13.40;99.90
8988;DHT22;4529;51.360;12.474;2023-04-24T03:48:42;13.40;99.90
8988;DHT22;4529;51.360;12.474;2023-04-24T03:53:47;13.30;99.90
8988;DHT22;4529;51.360;12.474;2023-04-24T03:58:50;13.40;99.90
8988;DHT22;4529;51.360;12.474;2023-04-24T04:03:55;13.30;99.90
8988;DHT22;4529;51.360;12.474;2023-04-24T04:08:59;13.30;99.90
8988;DHT22;4529;51.360;12.474;2023-04-24T04:14:03;13.30;99.90
8988;DHT22;4529;51.360;12.474;2023-04-24T04:19:07;13.20;99.90
8988;DHT22;4529;51.360;12.474;2023-04-24T04:24:11;13.20;99.90
8988;DHT22;4529;51.360;12.474;2023-04-24T04:29:15;13.20;99.90
8988;DHT22;4529;51.360;12.474;2023-04-24T04:34:19;13.10;99.90
8988;DHT22;4529;51.360;12.474;2023-04-24T04:39:22;13.20;99.90
8988;DHT22;4529;51.360;12.474;2023-04-24T04:44:26;13.20;99.90
8988;DHT22;4529;51.360;12.474;2023-04-24T04:49:29;13.20;99.90
8988;DHT22;4529;51.360;12.474;2023-04-24T04:54:32;13.20;99.90
8988;DHT22;4529;51.360;12.474;2023-04-24T04:59:36;13.10;99.90
8988;DHT22;4529;51.360;12.474;2023-04-24T05:04:40;13.00;99.90
8988;DHT22;4529;51.360;12.474;2023-04-24T05:09:43;13.00;99.90
8988;DHT22;4529;51.360;12.474;2023-04-24T05:14:46;13.00;99.90
8988;DHT22;4529;51.360;12.474;2023-04-24T05:19:50;13.00;99.90
8988;DHT22;4529;51.360;12.474;2023-04-24T05:24:53;13.10;99.90
8988;DHT22;4529;51.360;12.474;2023-04-24T05:29:57;13.30;99.90
8988;DHT22;4529;51.360;12.474;2023-04-24T05:35:01;13.40;99.90
8988;DHT22;4529;51.360;12.474;2023-04-24T05:40:06;13.50;99.90
8988;DHT22;4529;51.360;12.474;2023-04-24T05:45:10;13.50;99.90
8988;DHT22;4529;51.360;12.474;2023-04-24T05:50:14;13.60;99.90
8988;DHT22;4529;51.360;12.474;2023-04-24T05:55:18;13.70;99.90
8988;DHT22;4529;51.360;12.474;2023-04-24T06:00:23;13.90;99.90
8988;DHT22;4529;51.360;12.474;2023-04-24T06:05:26;14.00;99.90
8988;DHT22;4529;51.360;12.474;2023-04-24T06:10:31;14.10;99.90
8988;DHT22;4529;51.360;12.474;2023-04-24T06:15:35;14.30;99.90
8988;DHT22;4529;51.360;12.474;2023-04-24T06:20:39;14.40;99.90
8988;DHT22;4529;51.360;12.474;2023-04-24T06:25:43;14.50;99.90
8988;DHT22;4529;51.360;12.474;2023-04-24T06:30:47;14.50;99.90
8988;DHT22;4529;51.360;12.474;2023-04-24T06:35:51;14.40;99.90
8988;DHT22;4529;51.360;12.474;2023-04-24T06:40:55;14.30;99.90
8988;DHT22;4529;51.360;12.474;2023-04-24T06:45:59;14.40;99.90
8988;DHT22;4529;51.360;12.474;2023-04-24T06:51:02;14.30;99.90
8988;DHT22;4529;51.360;12.474;2023-04-24T06:56:06;14.30;99.90
8988;DHT22;4529;51.360;12.474;2023-04-24T07:01:09;14.20;99.90
8988;DHT22;4529;51.360;12.474;2023-04-24T07:06:13;14.20;99.90
8988;DHT22;4529;51.360;12.474;2023-04-24T07:11:16;14.30;99.90
8988;DHT22;4529;51.360;12.474;2023-04-24T07:16:20;14.30;99.90
8988;DHT22;4529;51.360;12.474;2023-04-24T07:21:23;14.20;99.90
8988;DHT22;4529;51.360;12.474;2023-04-24T07:26:27;14.30;99.90
8988;DHT22;4529;51.360;12.474;2023-04-24T07:31:30;14.40;99.90
8988;DHT22;4529;51.360;12.474;2023-04-24T07:36:33;14.60;99.90
8988;DHT22;4529;51.360;12.474;2023-04-24T07:41:38;14.60;99.90
8988;DHT22;4529;51.360;12.474;2023-04-24T07:46:42;14.80;99.90
8988;DHT22;4529;51.360;12.474;2023-04-24T07:51:46;14.90;99.90
8988;DHT22;4529;51.360;12.474;2023-04-24T07:56:50;15.00;99.90
8988;DHT22;4529;51.360;12.474;2023-04-24T08:01:54;15.00;99.90
8988;DHT22;4529;51.360;12.474;2023-04-24T08:06:58;15.00;99.90
8988;DHT22;4529;51.360;12.474;2023-04-24T08:12:03;15.10;99.90
8988;DHT22;4529;51.360;12.474;2023-04-24T08:17:06;15.10;99.90
8988;DHT22;4529;51.360;12.474;2023-04-24T08:22:09;15.20;99.90
8988;DHT22;4529;51.360;12.474;2023-04-24T08:27:13;15.30;99.90
8988;DHT22;4529;51.360;12.474;2023-04-24T08:32:16;15.50;99.90
8988;DHT22;4529;51.360;12.474;2023-04-24T08:37:20;15.60;99.90
8988;DHT22;4529;51.360;12.474;2023-04-24T08:42:23;15.90;99.90
8988;DHT22;4529;51.360;12.474;2023-04-24T08:47:27;15.90;99.90
8988;DHT22;4529;51.360;12.474;2023-04-24T08:52:30;15.90;99.90
8988;DHT22;4529;51.360;12.474;2023-04-24T08:57:34;15.70;99.90
8988;DHT22;4529;51.360;12.474;2023-04-24T09:02:42;15.80;99.90
8988;DHT22;4529;51.360;12.474;2023-04-24T09:07:45;15.80;99.90
8988;DHT22;4529;51.360;12.474;2023-04-24T09:12:49;16.20;99.90
8988;DHT22;4529;51.360;12.474;2023-04-24T09:17:52;16.60;99.90
8988;DHT22;4529;51.360;12.474;2023-04-24T09:22:56;16.70;99.90
8988;DHT22;4529;51.360;12.474;2023-04-24T09:28:02;16.50;99.90
8988;DHT22;4529;51.360;12.474;2023-04-24T09:33:14;16.30;99.90
8988;DHT22;4529;51.360;12.474;2023-04-24T09:38:18;16.00;99.90
8988;DHT22;4529;51.360;12.474;2023-04-24T09:43:22;15.80;99.90
8988;DHT22;4529;51.360;12.474;2023-04-24T09:48:36;15.70;99.90
8988;DHT22;4529;51.360;12.474;2023-04-24T09:53:38;15.70;99.90
8988;DHT22;4529;51.360;12.474;2023-04-24T09:58:42;15.60;99.90
8988;DHT22;4529;51.360;12.474;2023-04-24T10:03:45;15.50;99.90
8988;DHT22;4529;51.360;12.474;2023-04-24T10:08:49;15.50;99.90
8988;DHT22;4529;51.360;12.474;2023-04-24T10:13:53;16.00;99.90
8988;DHT22;4529;51.360;12.474;2023-04-24T10:18:58;16.00;99.90
8988;DHT22;4529;51.360;12.474;2023-04-24T10:24:01;16.50;99.90
8988;DHT22;4529;51.360;12.474;2023-04-24T10:29:05;16.40;99.90
8988;DHT22;4529;51.360;12.474;2023-04-24T10:34:10;16.20;99.90
8988;DHT22;4529;51.360;12.474;2023-04-24T10:39:14;16.10;99.90
8988;DHT22;4529;51.360;12.474;2023-04-24T10:44:18;16.10;99.90
8988;DHT22;4529;51.360;12.474;2023-04-24T10:49:29;16.20;99.90
8988;DHT22;4529;51.360;12.474;2023-04-24T10:59:44;16.30;99.90
8988;DHT22;4529;51.360;12.474;2023-04-24T11:04:47;16.70;99.90
8988;DHT22;4529;51.360;12.474;2023-04-24T11:09:57;16.80;99.90
8988;DHT22;4529;51.360;12.474;2023-04-24T11:20:04;16.80;99.90
8988;DHT22;4529;51.360;12.474;2023-04-24T11:25:11;17.00;99.90
8988;DHT22;4529;51.360;12.474;2023-04-24T11:30:18;16.90;99.90
8988;DHT22;4529;51.360;12.474;2023-04-24T11:35:22;16.90;99.90
8988;DHT22;4529;51.360;12.474;2023-04-24T11:40:26;17.20;99.90
8988;DHT22;4529;51.360;12.474;2023-04-24T11:45:30;17.50;99.90
8988;DHT22;4529;51.360;12.474;2023-04-24T11:50:34;17.40;99.90
8988;DHT22;4529;51.360;12.474;2023-04-24T11:55:38;17.50;99.90
8988;DHT22;4529;51.360;12.474;2023-04-24T12:00:42;17.60;99.90
8988;DHT22;4529;51.360;12.474;2023-04-24T12:05:46;17.40;99.90
8988;DHT22;4529;51.360;12.474;2023-04-24T12:10:51;17.20;99.90
8988;DHT22;4529;51.360;12.474;2023-04-24T12:15:56;17.10;99.90
8988;DHT22;4529;51.360;12.474;2023-04-24T12:21:22;16.90;99.90
8988;DHT22;4529;51.360;12.474;2023-04-24T12:26:23;16.80;99.90
8988;DHT22;4529;51.360;12.474;2023-04-24T12:31:27;16.90;99.90
8988;DHT22;4529;51.360;12.474;2023-04-24T12:36:32;16.80;99.90
8988;DHT22;4529;51.360;12.474;2023-04-24T12:41:36;16.90;99.90
8988;DHT22;4529;51.360;12.474;2023-04-24T12:46:40;16.90;99.90
8988;DHT22;4529;51.360;12.474;2023-04-24T12:51:44;16.90;99.90
8988;DHT22;4529;51.360;12.474;2023-04-24T12:56:48;16.90;99.90
8988;DHT22;4529;51.360;12.474;2023-04-24T13:01:52;17.00;99.90
8988;DHT22;4529;51.360;12.474;2023-04-24T13:06:56;17.00;99.90
8988;DHT22;4529;51.360;12.474;2023-04-24T13:12:00;16.90;99.90
8988;DHT22;4529;51.360;12.474;2023-04-24T13:17:05;16.90;99.90
8988;DHT22;4529;51.360;12.474;2023-04-24T13:22:12;17.00;99.90
8988;DHT22;4529;51.360;12.474;2023-04-24T13:27:16;16.90;99.90
8988;DHT22;4529;51.360;12.474;2023-04-24T13:32:20;17.10;99.90
8988;DHT22;4529;51.360;12.474;2023-04-24T13:37:24;17.10;99.90
8988;DHT22;4529;51.360;12.474;2023-04-24T13:42:28;17.10;99.90
8988;DHT22;4529;51.360;12.474;2023-04-24T13:47:32;17.20;99.90
8988;DHT22;4529;51.360;12.474;2023-04-24T13:52:36;17.10;99.50
8988;DHT22;4529;51.360;12.474;2023-04-24T13:57:40;17.00;99.90
8988;DHT22;4529;51.360;12.474;2023-04-24T14:02:45;16.90;99.80
8988;DHT22;4529;51.360;12.474;2023-04-24T14:07:49;16.70;99.90
8988;DHT22;4529;51.360;12.474;2023-04-24T14:12:53;16.70;99.90
8988;DHT22;4529;51.360;12.474;2023-04-24T14:17:57;16.70;99.90
8988;DHT22;4529;51.360;12.474;2023-04-24T14:23:01;16.80;99.90
8988;DHT22;4529;51.360;12.474;2023-04-24T14:28:05;16.80;99.90
8988;DHT22;4529;51.360;12.474;2023-04-24T14:33:09;16.70;99.90
8988;DHT22;4529;51.360;12.474;2023-04-24T14:38:14;16.60;99.90
8988;DHT22;4529;51.360;12.474;2023-04-24T14:43:18;16.50;99.90
8988;DHT22;4529;51.360;12.474;2023-04-24T14:48:22;16.40;99.90
8988;DHT22;4529;51.360;12.474;2023-04-24T14:53:26;16.40;99.90
8988;DHT22;4529;51.360;12.474;2023-04-24T14:58:30;16.20;99.90
8988;DHT22;4529;51.360;12.474;2023-04-24T15:03:34;16.00;99.90
8988;DHT22;4529;51.360;12.474;2023-04-24T15:08:38;15.80;99.90
8988;DHT22;4529;51.360;12.474;2023-04-24T15:13:42;15.80;99.90
8988;DHT22;4529;51.360;12.474;2023-04-24T15:18:45;15.50;99.90
8988;DHT22;4529;51.360;12.474;2023-04-24T15:23:49;15.40;99.90
8988;DHT22;4529;51.360;12.474;2023-04-24T15:28:52;15.40;99.90
8988;DHT22;4529;51.360;12.474;2023-04-24T15:33:56;15.50;99.90
8988;DHT22;4529;51.360;12.474;2023-04-24T15:39:00;15.60;99.90
8988;DHT22;4529;51.360;12.474;2023-04-24T15:44:03;15.30;99.90
8988;DHT22;4529;51.360;12.474;2023-04-24T15:49:07;15.20;99.90
8988;DHT22;4529;51.360;12.474;2023-04-24T15:54:10;15.20;99.90
8988;DHT22;4529;51.360;12.474;2023-04-24T15:59:14;15.00;99.90
8988;DHT22;4529;51.360;12.474;2023-04-24T16:04:17;14.90;99.90
8988;DHT22;4529;51.360;12.474;2023-04-24T16:09:22;14.80;99.90
8988;DHT22;4529;51.360;12.474;2023-04-24T16:14:26;14.70;99.90
8988;DHT22;4529;51.360;12.474;2023-04-24T16:19:30;14.70;99.90
8988;DHT22;4529;51.360;12.474;2023-04-24T16:24:34;14.60;99.90
8988;DHT22;4529;51.360;12.474;2023-04-24T16:29:38;14.40;99.90
8988;DHT22;4529;51.360;12.474;2023-04-24T16:34:42;14.30;99.90
8988;DHT22;4529;51.360;12.474;2023-04-24T16:39:46;14.20;99.90
8988;DHT22;4529;51.360;12.474;2023-04-24T16:44:50;14.10;99.90
8988;DHT22;4529;51.360;12.474;2023-04-24T16:49:55;14.00;99.90
8988;DHT22;4529;51.360;12.474;2023-04-24T16:54:59;14.00;99.90
8988;DHT22;4529;51.360;12.474;2023-04-24T17:00:03;14.00;99.90
8988;DHT22;4529;51.360;12.474;2023-04-24T17:05:06;14.00;99.90
8988;DHT22;4529;51.360;12.474;2023-04-24T17:10:10;14.00;99.90
8988;DHT22;4529;51.360;12.474;2023-04-24T17:15:13;14.00;99.90
8988;DHT22;4529;51.360;12.474;2023-04-24T17:20:17;14.00;99.90
8988;DHT22;4529;51.360;12.474;2023-04-24T17:25:21;13.90;99.90
8988;DHT22;4529;51.360;12.474;2023-04-24T17:30:25;13.80;99.90
8988;DHT22;4529;51.360;12.474;2023-04-24T17:35:29;13.80;99.90
8988;DHT22;4529;51.360;12.474;2023-04-24T17:40:33;13.80;99.90
8988;DHT22;4529;51.360;12.474;2023-04-24T17:45:38;13.70;99.90
8988;DHT22;4529;51.360;12.474;2023-04-24T17:50:42;13.70;99.90
8988;DHT22;4529;51.360;12.474;2023-04-24T17:55:46;13.60;99.90
8988;DHT22;4529;51.360;12.474;2023-04-24T18:00:50;13.60;99.90
8988;DHT22;4529;51.360;12.474;2023-04-24T18:05:54;13.50;99.90
8988;DHT22;4529;51.360;12.474;2023-04-24T18:10:58;13.50;99.90
8988;DHT22;4529;51.360;12.474;2023-04-24T18:16:02;13.40;99.90
8988;DHT22;4529;51.360;12.474;2023-04-24T18:21:06;13.40;99.90
8988;DHT22;4529;51.360;12.474;2023-04-24T18:26:11;13.30;99.90
8988;DHT22;4529;51.360;12.474;2023-04-24T18:31:14;13.20;99.90
8988;DHT22;4529;51.360;12.474;2023-04-24T18:36:19;13.10;99.90
8988;DHT22;4529;51.360;12.474;2023-04-24T18:41:23;13.00;99.90
8988;DHT22;4529;51.360;12.474;2023-04-24T18:46:27;12.90;99.90
8988;DHT22;4529;51.360;12.474;2023-04-24T18:51:31;12.80;99.90
8988;DHT22;4529;51.360;12.474;2023-04-24T18:56:35;12.70;99.90
8988;DHT22;4529;51.360;12.474;2023-04-24T19:01:39;12.70;99.90
8988;DHT22;4529;51.360;12.474;2023-04-24T19:06:43;12.60;99.90
8988;DHT22;4529;51.360;12.474;2023-04-24T19:11:46;12.60;99.90
8988;DHT22;4529;51.360;12.474;2023-04-24T19:16:50;12.50;99.90
8988;DHT22;4529;51.360;12.474;2023-04-24T19:21:53;12.50;99.90
8988;DHT22;4529;51.360;12.474;2023-04-24T19:26:56;12.50;99.90
8988;DHT22;4529;51.360;12.474;2023-04-24T19:32:00;12.50;99.90
8988;DHT22;4529;51.360;12.474;2023-04-24T19:37:04;12.40;99.90
8988;DHT22;4529;51.360;12.474;2023-04-24T19:42:07;12.40;99.90
8988;DHT22;4529;51.360;12.474;2023-04-24T19:47:11;12.30;99.90
8988;DHT22;4529;51.360;12.474;2023-04-24T19:52:15;12.20;99.90
8988;DHT22;4529;51.360;12.474;2023-04-24T19:57:19;12.10;99.90
8988;DHT22;4529;51.360;12.474;2023-04-24T20:02:24;12.00;99.90
8988;DHT22;4529;51.360;12.474;2023-04-24T20:07:28;11.90;99.90
8988;DHT22;4529;51.360;12.474;2023-04-24T20:12:32;11.80;99.90
8988;DHT22;4529;51.360;12.474;2023-04-24T20:17:36;11.80;99.90
8988;DHT22;4529;51.360;12.474;2023-04-24T20:22:40;11.70;99.90
8988;DHT22;4529;51.360;12.474;2023-04-24T20:27:44;11.70;99.90
8988;DHT22;4529;51.360;12.474;2023-04-24T20:32:48;11.70;99.90
8988;DHT22;4529;51.360;12.474;2023-04-24T20:37:53;11.60;99.90
8988;DHT22;4529;51.360;12.474;2023-04-24T20:42:57;11.60;99.90
8988;DHT22;4529;51.360;12.474;2023-04-24T20:48:01;11.60;99.90
8988;DHT22;4529;51.360;12.474;2023-04-24T20:53:05;11.60;99.90
8988;DHT22;4529;51.360;12.474;2023-04-24T20:58:09;11.60;99.90
8988;DHT22;4529;51.360;12.474;2023-04-24T21:03:13;11.60;99.90
8988;DHT22;4529;51.360;12.474;2023-04-24T21:08:17;11.60;99.90
8988;DHT22;4529;51.360;12.474;2023-04-24T21:13:21;11.60;99.90
8988;DHT22;4529;51.360;12.474;2023-04-24T21:18:26;11.60;99.90
8988;DHT22;4529;51.360;12.474;2023-04-24T21:23:30;11.50;99.90
8988;DHT22;4529;51.360;12.474;2023-04-24T21:28:34;11.50;99.90
8988;DHT22;4529;51.360;12.474;2023-04-24T21:33:38;11.40;99.90
8988;DHT22;4529;51.360;12.474;2023-04-24T21:38:41;11.40;99.90
8988;DHT22;4529;51.360;12.474;2023-04-24T21:43:45;11.30;99.90
8988;DHT22;4529;51.360;12.474;2023-04-24T21:48:48;11.30;99.90
8988;DHT22;4529;51.360;12.474;2023-04-24T21:53:52;11.30;99.90
8988;DHT22;4529;51.360;12.474;2023-04-24T21:58:55;11.20;99.90
8988;DHT22;4529;51.360;12.474;2023-04-24T22:03:59;11.20;99.90
8988;DHT22;4529;51.360;12.474;2023-04-24T22:09:02;11.10;99.90
8988;DHT22;4529;51.360;12.474;2023-04-24T22:14:06;11.00;99.90
8988;DHT22;4529;51.360;12.474;2023-04-24T22:19:09;11.00;99.90
8988;DHT22;4529;51.360;12.474;2023-04-24T22:24:13;11.00;99.90
8988;DHT22;4529;51.360;12.474;2023-04-24T22:29:16;11.10;99.90
8988;DHT22;4529;51.360;12.474;2023-04-24T22:34:20;11.20;99.90
8988;DHT22;4529;51.360;12.474;2023-04-24T22:39:24;11.20;99.90
8988;DHT22;4529;51.360;12.474;2023-04-24T22:44:28;11.30;99.90
8988;DHT22;4529;51.360;12.474;2023-04-24T22:49:33;11.20;99.90
8988;DHT22;4529;51.360;12.474;2023-04-24T22:54:37;11.10;99.90
8988;DHT22;4529;51.360;12.474;2023-04-24T22:59:41;11.00;99.90
8988;DHT22;4529;51.360;12.474;2023-04-24T23:04:45;11.10;99.90
8988;DHT22;4529;51.360;12.474;2023-04-24T23:09:49;11.00;99.90
8988;DHT22;4529;51.360;12.474;2023-04-24T23:14:53;11.00;99.90
8988;DHT22;4529;51.360;12.474;2023-04-24T23:19:56;11.00;99.90
8988;DHT22;4529;51.360;12.474;2023-04-24T23:25:00;10.80;99.90
8988;DHT22;4529;51.360;12.474;2023-04-24T23:30:06;10.60;99.90
8988;DHT22;4529;51.360;12.474;2023-04-24T23:35:10;10.60;99.90
8988;DHT22;4529;51.360;12.474;2023-04-24T23:40:13;10.50;99.90
8988;DHT22;4529;51.360;12.474;2023-04-24T23:45:16;10.40;99.90
8988;DHT22;4529;51.360;12.474;2023-04-24T23:50:21;10.30;99.90
8988;DHT22;4529;51.360;12.474;2023-04-24T23:55:25;10.30;99.90
